createdAt,value
2022-09-12T00:01:27.118Z,90.80
2022-09-12T00:04:00.787Z,90.80
2022-09-12T00:06:32.677Z,90.90
2022-09-12T00:09:04.501Z,91.00
2022-09-12T00:11:32.004Z,91.10
2022-09-12T00:14:01.558Z,91.10
2022-09-12T00:16:31.868Z,90.80
2022-09-12T00:18:59.739Z,90.90
2022-09-12T00:21:27.891Z,91.20
2022-09-12T00:23:55.542Z,91.40
2022-09-12T00:26:23.150Z,91.50
2022-09-12T00:28:50.596Z,91.60
2022-09-12T00:31:24.161Z,91.70
2022-09-12T00:33:52.780Z,91.80
2022-09-12T00:36:24.458Z,92.00
2022-09-12T00:38:52.505Z,92.10
2022-09-12T00:41:35.572Z,92.30
2022-09-12T00:44:11.085Z,92.60
2022-09-12T00:47:05.246Z,92.80
2022-09-12T00:49:57.896Z,92.80
2022-09-12T00:52:40.971Z,93.00
2022-09-12T00:55:27.863Z,93.00
2022-09-12T00:58:07.718Z,93.00
2022-09-12T01:00:35.130Z,92.90
2022-09-12T01:03:11.094Z,92.80
2022-09-12T01:05:48.145Z,92.70
2022-09-12T01:08:15.354Z,92.60
2022-09-12T01:10:43.394Z,92.60
2022-09-12T01:13:11.506Z,92.40
2022-09-12T01:15:39.922Z,92.20
2022-09-12T01:18:45.470Z,92.10
2022-09-12T01:21:50.075Z,92.00
2022-09-12T01:24:47.880Z,91.80
2022-09-12T01:27:44.106Z,92.10
2022-09-12T01:30:38.801Z,92.00
2022-09-12T01:33:23.922Z,92.00
2022-09-12T01:36:26.747Z,91.90
2022-09-12T01:39:06.716Z,91.80
2022-09-12T01:42:02.731Z,91.60
2022-09-12T01:44:50.079Z,91.70
2022-09-12T01:47:45.466Z,91.70
2022-09-12T01:50:30.280Z,91.60
2022-09-12T01:53:08.428Z,91.70
2022-09-12T01:55:46.447Z,91.70
2022-09-12T01:58:22.663Z,91.80
2022-09-12T02:01:16.922Z,91.90
2022-09-12T02:03:59.458Z,92.00
2022-09-12T02:06:52.351Z,92.00
2022-09-12T02:09:27.637Z,92.00
2022-09-12T02:12:00.848Z,92.00
2022-09-12T02:14:40.952Z,92.10
2022-09-12T02:17:20.749Z,92.10
2022-09-12T02:20:06.817Z,92.30
2022-09-12T02:22:38.368Z,92.40
2022-09-12T02:25:11.540Z,92.60
2022-09-12T02:27:45.944Z,92.50
2022-09-12T02:30:16.563Z,92.50
2022-09-12T02:33:14.658Z,92.50
2022-09-12T02:35:58.057Z,92.60
2022-09-12T02:38:31.192Z,92.80
2022-09-12T02:40:58.593Z,92.80
2022-09-12T02:43:25.793Z,92.90
2022-09-12T02:45:53.415Z,93.00
2022-09-12T02:48:43.611Z,93.10
2022-09-12T02:51:12.499Z,93.00
2022-09-12T02:53:40.496Z,93.00
2022-09-12T02:56:18.489Z,92.80
2022-09-12T02:58:46.246Z,92.60
2022-09-12T03:01:26.156Z,92.50
2022-09-12T03:04:27.234Z,92.50
2022-09-12T03:07:12.489Z,92.50
2022-09-12T03:10:14.915Z,92.60
2022-09-12T03:13:02.756Z,92.80
2022-09-12T03:15:46.364Z,92.90
2022-09-12T03:19:06.549Z,92.90
2022-09-12T03:22:29.662Z,92.90
2022-09-12T03:25:36.706Z,92.80
2022-09-12T03:28:12.279Z,92.40
2022-09-12T03:30:46.014Z,92.10
2022-09-12T03:33:20.154Z,91.90
2022-09-12T03:35:49.265Z,91.80
2022-09-12T03:38:16.733Z,92.00
2022-09-12T03:40:43.799Z,91.70
2022-09-12T03:43:11.256Z,91.90
2022-09-12T03:45:38.735Z,92.00
2022-09-12T03:48:06.859Z,92.10
2022-09-12T03:50:34.426Z,92.10
2022-09-12T03:53:03.464Z,92.10
2022-09-12T03:55:31.140Z,92.30
2022-09-12T03:57:58.227Z,92.40
2022-09-12T04:00:25.703Z,92.30
2022-09-12T04:02:59.088Z,92.20
2022-09-12T04:05:26.467Z,92.30
2022-09-12T04:07:53.562Z,92.50
2022-09-12T04:10:20.650Z,92.50
2022-09-12T04:12:47.708Z,92.50
2022-09-12T04:15:15.105Z,92.40
2022-09-12T04:17:42.220Z,92.50
2022-09-12T04:20:10.094Z,92.60
2022-09-12T04:22:37.096Z,92.60
2022-09-12T04:25:04.637Z,92.80
2022-09-12T04:27:31.709Z,93.10
2022-09-12T04:30:00.247Z,93.10
2022-09-12T04:32:27.298Z,93.40
2022-09-12T04:34:54.285Z,93.40
2022-09-12T04:37:21.915Z,93.70
2022-09-12T04:39:49.781Z,94.00
2022-09-12T04:42:17.753Z,94.10
2022-09-12T04:44:44.861Z,94.00
2022-09-12T04:47:11.906Z,93.80
2022-09-12T04:49:39.036Z,93.40
2022-09-12T04:52:06.263Z,93.10
2022-09-12T04:54:33.697Z,93.10
2022-09-12T04:57:00.806Z,92.50
2022-09-12T04:59:27.875Z,92.30
2022-09-12T05:01:54.964Z,92.20
2022-09-12T05:04:22.121Z,91.90
2022-09-12T05:06:49.236Z,91.80
2022-09-12T05:09:16.601Z,92.00
2022-09-12T05:14:33.929Z,92.10
2022-09-12T05:17:02.253Z,92.10
2022-09-12T05:19:31.191Z,92.10
2022-09-12T05:21:59.061Z,92.30
2022-09-12T05:24:26.814Z,92.40
2022-09-12T05:26:53.897Z,92.50
2022-09-12T05:29:20.957Z,92.60
2022-09-12T05:31:52.169Z,92.80
2022-09-12T05:34:20.781Z,93.00
2022-09-12T05:36:48.245Z,93.10
2022-09-12T05:39:15.399Z,93.30
2022-09-12T05:41:42.499Z,93.40
2022-09-12T05:44:14.272Z,93.50
2022-09-12T05:46:45.611Z,93.70
2022-09-12T05:49:14.455Z,93.70
2022-09-12T05:51:45.411Z,94.00
2022-09-12T05:54:19.534Z,93.90
2022-09-12T05:56:47.451Z,94.10
2022-09-12T05:59:19.099Z,94.20
2022-09-12T06:01:46.997Z,94.30
2022-09-12T06:04:14.599Z,94.50
2022-09-12T06:06:48.807Z,94.50
2022-09-12T06:09:17.390Z,94.50
2022-09-12T06:11:46.453Z,96.10
2022-09-12T06:14:16.427Z,95.30
2022-09-12T06:19:23.782Z,94.20
2022-09-12T06:24:20.798Z,95.20
2022-09-12T06:26:50.043Z,94.50
2022-09-12T06:29:17.360Z,94.60
2022-09-12T06:34:15.307Z,94.70
2022-09-12T06:36:46.765Z,95.00
2022-09-12T06:39:20.655Z,95.10
2022-09-12T06:41:50.043Z,95.10
2022-09-12T06:44:22.416Z,95.10
2022-09-12T06:46:50.358Z,96.70
2022-09-12T06:49:17.896Z,97.60
2022-09-12T06:51:45.309Z,95.50
2022-09-12T06:54:15.726Z,95.10
2022-09-12T07:01:38.192Z,97.10
2022-09-12T07:06:39.926Z,95.60
2022-09-12T07:09:10.682Z,95.10
2022-09-12T07:11:41.493Z,96.20
2022-09-12T07:14:12.993Z,95.40
2022-09-12T07:16:40.319Z,95.30
2022-09-12T07:19:09.346Z,95.40
2022-09-12T07:21:40.006Z,97.10
2022-09-12T07:24:11.118Z,96.50
2022-09-12T07:26:40.181Z,95.20
2022-09-12T07:29:34.726Z,97.60
2022-09-12T07:34:22.149Z,95.20
2022-09-12T07:36:49.148Z,97.50
2022-09-12T07:41:43.638Z,96.00
2022-09-12T07:51:35.976Z,96.80
2022-09-12T07:54:08.043Z,96.60
2022-09-12T08:06:36.178Z,94.80
2022-09-12T08:09:05.187Z,95.00
2022-09-12T08:11:32.477Z,95.00
2022-09-12T08:14:01.763Z,94.90
2022-09-12T08:16:31.269Z,95.00
2022-09-12T08:19:00.647Z,95.40
2022-09-12T08:21:31.423Z,95.60
2022-09-12T08:24:05.416Z,95.60
2022-09-12T08:26:34.771Z,95.70
2022-09-12T08:29:02.624Z,95.70
2022-09-12T08:31:36.349Z,95.90
2022-09-12T08:34:07.108Z,95.90
2022-09-12T08:36:35.264Z,96.00
2022-09-12T08:39:07.781Z,96.10
2022-09-12T08:41:47.362Z,96.10
2022-09-12T08:44:51.509Z,96.60
2022-09-12T08:47:27.869Z,96.80
2022-09-12T08:50:10.312Z,96.80
2022-09-12T08:53:04.371Z,96.70
2022-09-12T08:56:00.300Z,96.50
2022-09-12T08:58:29.753Z,97.10
2022-09-12T09:01:35.784Z,97.50
2022-09-12T09:04:33.636Z,97.50
2022-09-12T09:07:51.074Z,97.20
2022-09-12T09:10:42.839Z,97.20
2022-09-12T09:14:13.052Z,97.30
2022-09-12T09:16:44.337Z,97.00
2022-09-12T09:19:28.834Z,97.20
2022-09-12T09:22:04.775Z,97.00
2022-09-12T09:24:48.167Z,96.90
2022-09-12T09:27:41.026Z,96.70
2022-09-12T09:30:21.735Z,96.90
2022-09-12T09:32:58.230Z,96.10
2022-09-12T09:35:46.488Z,95.80
2022-09-12T09:38:24.653Z,95.40
2022-09-12T09:40:58.538Z,95.00
2022-09-12T09:43:29.957Z,94.50
2022-09-12T09:46:00.504Z,94.20
2022-09-12T09:48:38.368Z,94.30
2022-09-12T09:51:09.301Z,94.20
2022-09-12T09:53:55.125Z,93.70
2022-09-12T09:56:36.974Z,93.50
2022-09-12T09:59:31.159Z,93.10
2022-09-12T10:02:14.447Z,92.80
2022-09-12T10:04:55.299Z,92.70
2022-09-12T10:07:23.908Z,92.50
2022-09-12T10:10:16.302Z,92.30
2022-09-12T10:12:44.588Z,91.90
2022-09-12T10:15:28.171Z,91.60
2022-09-12T10:17:56.728Z,91.50
2022-09-12T10:20:40.461Z,91.20
2022-09-12T10:23:32.323Z,91.20
2022-09-12T10:26:08.586Z,91.40
2022-09-12T10:28:53.559Z,90.20
2022-09-12T10:31:55.685Z,88.00
2022-09-12T10:34:32.445Z,87.90
2022-09-12T10:37:07.602Z,87.60
2022-09-12T10:39:37.976Z,88.90
2022-09-12T10:42:06.115Z,88.20
2022-09-12T10:44:35.616Z,89.60
2022-09-12T10:47:24.501Z,86.70
2022-09-12T10:49:51.664Z,83.50
2022-09-12T10:52:26.144Z,81.90
2022-09-12T10:54:54.718Z,80.90
2022-09-12T10:57:55.098Z,80.70
2022-09-12T11:00:27.970Z,81.20
2022-09-12T11:03:09.622Z,78.70
2022-09-12T11:05:53.608Z,77.80
2022-09-12T11:08:32.913Z,78.40
2022-09-12T11:11:04.772Z,78.40
2022-09-12T11:14:10.626Z,78.50
2022-09-12T11:17:04.591Z,76.60
2022-09-12T11:19:57.495Z,75.90
2022-09-12T11:23:15.021Z,72.20
2022-09-12T11:26:24.499Z,71.90
2022-09-12T11:29:31.837Z,73.50
2022-09-12T11:32:10.810Z,73.20
2022-09-12T11:35:19.982Z,71.80
2022-09-12T11:38:17.285Z,72.10
2022-09-12T11:41:34.344Z,74.00
2022-09-12T11:44:13.155Z,71.10
2022-09-12T11:46:45.208Z,73.20
2022-09-12T11:49:22.840Z,70.60
2022-09-12T11:52:20.305Z,71.40
2022-09-12T11:55:15.880Z,70.30
2022-09-12T11:57:54.069Z,72.20
2022-09-12T12:00:45.646Z,71.40
2022-09-12T12:03:40.408Z,71.90
2022-09-12T12:06:36.818Z,73.50
2022-09-12T12:09:05.302Z,72.30
2022-09-12T12:11:45.250Z,71.60
2022-09-12T12:14:22.808Z,71.40
2022-09-12T12:16:50.958Z,72.60
2022-09-12T12:19:17.908Z,72.40
2022-09-12T12:21:51.055Z,70.30
2022-09-12T12:24:23.284Z,72.80
2022-09-12T12:26:53.390Z,73.50
2022-09-12T12:29:20.371Z,72.10
2022-09-12T12:32:17.606Z,70.70
2022-09-12T12:34:47.509Z,70.80
2022-09-12T12:37:21.026Z,73.00
2022-09-12T12:39:48.242Z,71.20
2022-09-12T12:42:36.407Z,68.20
2022-09-12T12:45:09.714Z,69.40
2022-09-12T12:47:36.649Z,70.60
2022-09-12T12:50:26.267Z,65.60
2022-09-12T12:53:08.218Z,64.80
2022-09-12T12:55:50.459Z,65.50
2022-09-12T12:58:36.270Z,66.80
2022-09-12T13:01:06.178Z,65.30
2022-09-12T13:03:34.734Z,65.70
2022-09-12T13:06:07.377Z,65.40
2022-09-12T13:08:55.473Z,64.20
2022-09-12T13:11:41.080Z,63.60
2022-09-12T13:14:43.097Z,65.60
2022-09-12T13:17:28.530Z,64.90
2022-09-12T13:20:26.633Z,65.50
2022-09-12T13:22:55.442Z,62.90
2022-09-12T13:25:35.180Z,61.90
2022-09-12T13:28:15.988Z,63.60
2022-09-12T13:31:11.946Z,64.00
2022-09-12T13:33:53.797Z,63.40
2022-09-12T13:37:20.588Z,66.40
2022-09-12T13:40:04.083Z,65.30
2022-09-12T13:42:46.191Z,63.50
2022-09-12T13:45:26.929Z,63.60
2022-09-12T13:48:00.513Z,63.30
2022-09-12T13:50:39.300Z,64.60
2022-09-12T13:53:15.813Z,60.80
2022-09-12T13:55:50.063Z,61.50
2022-09-12T13:58:28.246Z,60.30
2022-09-12T14:01:10.452Z,59.30
2022-09-12T14:04:34.877Z,59.20
2022-09-12T14:07:25.766Z,59.50
2022-09-12T14:09:59.737Z,59.90
2022-09-12T14:12:41.469Z,59.40
2022-09-12T14:15:26.009Z,59.10
2022-09-12T14:18:01.543Z,59.50
2022-09-12T14:20:34.786Z,59.50
2022-09-12T14:23:20.193Z,60.00
2022-09-12T14:25:49.365Z,61.20
2022-09-12T14:28:23.581Z,59.80
2022-09-12T14:31:06.498Z,59.10
2022-09-12T14:33:51.549Z,61.20
2022-09-12T14:36:50.558Z,58.90
2022-09-12T14:39:44.868Z,60.40
2022-09-12T14:42:15.587Z,58.70
2022-09-12T14:44:58.813Z,59.70
2022-09-12T14:47:33.356Z,58.50
2022-09-12T14:50:00.667Z,59.20
2022-09-12T14:52:33.250Z,56.60
2022-09-12T14:55:29.599Z,55.30
2022-09-12T14:58:23.664Z,55.00
2022-09-12T15:01:02.728Z,55.90
2022-09-12T15:03:34.869Z,57.60
2022-09-12T15:06:05.763Z,56.90
2022-09-12T15:08:32.914Z,56.40
2022-09-12T15:11:00.507Z,55.30
2022-09-12T15:13:30.270Z,54.80
2022-09-12T15:15:59.983Z,54.80
2022-09-12T15:18:29.211Z,55.60
2022-09-12T15:21:02.751Z,57.20
2022-09-12T15:23:48.962Z,55.30
2022-09-12T15:26:20.562Z,56.80
2022-09-12T15:28:47.923Z,56.70
2022-09-12T15:31:30.936Z,56.40
2022-09-12T15:34:01.412Z,56.20
2022-09-12T15:36:29.601Z,54.90
2022-09-12T15:38:57.253Z,54.40
2022-09-12T15:41:37.036Z,55.60
2022-09-12T15:44:12.104Z,57.70
2022-09-12T15:46:39.281Z,57.40
2022-09-12T15:49:07.636Z,57.80
2022-09-12T15:51:34.746Z,57.90
2022-09-12T15:54:04.381Z,56.40
2022-09-12T15:56:31.443Z,56.00
2022-09-12T15:59:00.020Z,55.80
2022-09-12T16:01:29.184Z,55.40
2022-09-12T16:03:56.912Z,56.10
2022-09-12T16:06:24.554Z,57.30
2022-09-12T16:08:51.679Z,56.20
2022-09-12T16:11:25.927Z,55.60
2022-09-12T16:13:53.834Z,56.30
2022-09-12T16:16:21.338Z,55.50
2022-09-12T16:18:48.580Z,55.70
2022-09-12T16:21:16.107Z,55.70
2022-09-12T16:23:47.943Z,56.60
2022-09-12T16:26:15.937Z,57.20
2022-09-12T16:28:43.286Z,58.80
2022-09-12T16:31:14.001Z,58.30
2022-09-12T16:33:41.941Z,58.90
2022-09-12T16:36:18.795Z,59.30
2022-09-12T16:38:49.273Z,59.80
2022-09-12T16:41:19.327Z,59.20
2022-09-12T16:43:47.065Z,59.60
2022-09-12T16:46:24.723Z,59.60
2022-09-12T16:48:57.883Z,57.80
2022-09-12T16:51:35.991Z,58.60
2022-09-12T16:54:03.200Z,59.60
2022-09-12T16:56:30.703Z,60.30
2022-09-12T16:58:57.760Z,60.60
2022-09-12T17:01:26.843Z,60.70
2022-09-12T17:03:56.563Z,61.00
2022-09-12T17:06:25.303Z,61.40
2022-09-12T17:08:54.909Z,61.80
2022-09-12T17:11:32.550Z,62.20
2022-09-12T17:14:04.976Z,62.40
2022-09-12T17:16:40.177Z,62.80
2022-09-12T17:19:11.875Z,63.00
2022-09-12T17:21:38.957Z,63.30
2022-09-12T17:24:06.123Z,63.70
2022-09-12T17:26:33.590Z,63.80
2022-09-12T17:29:01.166Z,64.00
2022-09-12T17:31:29.111Z,64.30
2022-09-12T17:34:01.353Z,64.50
2022-09-12T17:36:29.702Z,64.70
2022-09-12T17:38:56.770Z,64.80
2022-09-12T17:41:28.430Z,65.00
2022-09-12T17:43:58.512Z,65.20
2022-09-12T17:46:34.934Z,65.50
2022-09-12T17:49:05.825Z,65.60
2022-09-12T17:51:33.480Z,65.90
2022-09-12T17:54:08.278Z,66.10
2022-09-12T17:56:37.208Z,66.30
2022-09-12T17:59:07.417Z,66.60
2022-09-12T18:01:53.636Z,66.80
2022-09-12T18:04:21.080Z,67.30
2022-09-12T18:06:48.991Z,68.00
2022-09-12T18:09:23.407Z,68.20
2022-09-12T18:11:51.932Z,68.00
2022-09-12T18:14:20.320Z,67.90
2022-09-12T18:16:48.192Z,68.10
2022-09-12T18:19:16.105Z,68.20
2022-09-12T18:21:43.235Z,68.40
2022-09-12T18:24:11.383Z,68.40
2022-09-12T18:26:38.794Z,68.80
2022-09-12T18:29:06.728Z,68.80
2022-09-12T18:31:33.881Z,69.20
2022-09-12T18:34:01.437Z,70.00
2022-09-12T18:36:30.515Z,70.40
2022-09-12T18:38:59.257Z,71.60
2022-09-12T18:41:28.907Z,72.40
2022-09-12T18:43:58.255Z,72.80
2022-09-12T18:46:27.740Z,72.90
2022-09-12T18:48:59.926Z,73.20
2022-09-12T18:51:34.913Z,73.00
2022-09-12T18:54:11.050Z,73.10
2022-09-12T18:56:40.949Z,73.40
2022-09-12T18:59:09.916Z,73.70
2022-09-12T19:01:38.875Z,73.90
2022-09-12T19:04:09.934Z,73.70
2022-09-12T19:06:43.492Z,73.30
2022-09-12T19:09:13.115Z,73.50
2022-09-12T19:11:48.762Z,74.40
2022-09-12T19:14:23.526Z,74.20
2022-09-12T19:16:52.202Z,73.90
2022-09-12T19:19:20.698Z,74.40
2022-09-12T19:21:48.086Z,75.10
2022-09-12T19:24:16.647Z,75.50
2022-09-12T19:26:44.850Z,75.30
2022-09-12T19:29:12.272Z,75.90
2022-09-12T19:31:39.327Z,76.20
2022-09-12T19:34:10.659Z,76.60
2022-09-12T19:36:47.003Z,76.10
2022-09-12T19:39:16.877Z,75.90
2022-09-12T19:41:44.972Z,76.00
2022-09-12T19:44:12.723Z,75.80
2022-09-12T19:46:40.489Z,76.10
2022-09-12T19:49:07.711Z,76.70
2022-09-12T19:51:34.764Z,77.10
2022-09-12T19:54:02.243Z,77.20
2022-09-12T19:56:29.379Z,77.00
2022-09-12T19:58:56.996Z,77.80
2022-09-12T20:01:29.217Z,77.70
2022-09-12T20:03:58.675Z,77.70
2022-09-12T20:06:27.543Z,77.40
2022-09-12T20:08:55.945Z,77.50
2022-09-12T20:11:25.852Z,77.10
2022-09-12T20:13:53.635Z,77.50
2022-09-12T20:16:29.648Z,78.30
2022-09-12T20:19:01.819Z,78.70
2022-09-12T20:21:32.214Z,78.90
2022-09-12T20:24:13.967Z,79.30
2022-09-12T20:26:41.689Z,79.00
2022-09-12T20:29:10.148Z,79.60
2022-09-12T20:31:40.053Z,79.10
2022-09-12T20:34:08.361Z,78.90
2022-09-12T20:36:35.469Z,79.80
2022-09-12T20:39:03.686Z,79.90
2022-09-12T20:41:36.040Z,80.10
2022-09-12T20:44:03.223Z,80.00
2022-09-12T20:46:30.317Z,79.70
2022-09-12T20:48:58.623Z,79.60
2022-09-12T20:51:27.299Z,80.30
2022-09-12T20:53:56.090Z,80.40
2022-09-12T20:56:24.795Z,81.10
2022-09-12T20:58:51.895Z,81.10
2022-09-12T21:01:19.152Z,80.70
2022-09-12T21:03:47.077Z,81.20
2022-09-12T21:06:19.246Z,81.50
2022-09-12T21:08:48.082Z,81.00
2022-09-12T21:11:16.186Z,81.10
2022-09-12T21:13:43.718Z,81.30
2022-09-12T21:16:17.849Z,82.00
2022-09-12T21:18:45.735Z,82.50
2022-09-12T21:21:15.127Z,82.70
2022-09-12T21:23:42.305Z,82.40
2022-09-12T21:26:09.790Z,81.90
2022-09-12T21:28:37.124Z,82.00
2022-09-12T21:31:05.215Z,82.70
2022-09-12T21:33:32.245Z,82.90
2022-09-12T21:36:07.143Z,83.40
2022-09-12T21:38:34.899Z,82.80
2022-09-12T21:41:15.103Z,83.20
2022-09-12T21:43:43.358Z,83.50
2022-09-12T21:46:10.894Z,83.00
2022-09-12T21:48:38.265Z,85.20
2022-09-12T21:51:05.831Z,83.50
2022-09-12T21:53:32.881Z,82.90
2022-09-12T21:56:07.483Z,82.50
2022-09-12T21:58:35.788Z,82.50
2022-09-12T22:01:05.749Z,83.00
2022-09-12T22:03:32.908Z,83.90
2022-09-12T22:06:02.718Z,84.00
2022-09-12T22:08:32.199Z,84.30
2022-09-12T22:11:07.993Z,85.40
2022-09-12T22:13:44.003Z,84.30
2022-09-12T22:16:11.859Z,83.80
2022-09-12T22:18:39.226Z,83.40
2022-09-12T22:21:12.506Z,84.20
2022-09-12T22:23:58.358Z,84.30
2022-09-12T22:26:27.035Z,84.20
2022-09-12T22:28:54.531Z,84.40
2022-09-12T22:31:22.176Z,83.80
2022-09-12T22:33:50.845Z,83.70
2022-09-12T22:36:18.308Z,85.00
2022-09-12T22:38:45.424Z,85.60
2022-09-12T22:41:13.306Z,86.00
2022-09-12T22:43:41.085Z,85.80
2022-09-12T22:46:12.385Z,86.00
2022-09-12T22:48:40.678Z,86.50
2022-09-12T22:51:08.461Z,86.00
2022-09-12T22:53:36.945Z,85.20
2022-09-12T22:56:05.540Z,85.60
2022-09-12T22:58:36.761Z,86.40
2022-09-12T23:01:06.363Z,87.20
2022-09-12T23:03:35.240Z,86.60
2022-09-12T23:06:03.590Z,85.60
2022-09-12T23:08:30.882Z,85.20
2022-09-12T23:11:04.612Z,86.00
2022-09-12T23:13:32.858Z,87.00
2022-09-12T23:16:06.739Z,87.80
2022-09-12T23:18:37.607Z,86.80
2022-09-12T23:21:08.735Z,87.20
2022-09-12T23:23:36.782Z,87.90
2022-09-12T23:26:29.690Z,88.70
2022-09-12T23:29:02.241Z,89.10
2022-09-12T23:31:32.338Z,88.30
2022-09-12T23:34:04.042Z,88.70
2022-09-12T23:36:31.263Z,88.40
2022-09-12T23:38:58.415Z,87.60
2022-09-12T23:41:25.688Z,87.10
2022-09-12T23:43:52.763Z,87.90
2022-09-12T23:46:20.796Z,88.70
2022-09-12T23:48:48.763Z,89.30
2022-09-12T23:51:16.835Z,89.90
2022-09-12T23:53:43.880Z,90.10
2022-09-12T23:56:12.123Z,90.20
2022-09-12T23:58:39.206Z,90.50
